Time;durP1;ratioP1;P1;durP2;ratioP2;P2;SDS_P1;SDS_P2;PMS_P1;PMS_P2;Temp;Humidity;BMP_temperature;BMP_pressure;BME280_temperature;BME280_humidity;BME280_pressure;Samples;Min_cycle;Max_cycle;Signal;HPM_P1;HPM_P2
2023/07/29 00:00:46;;;;;;;3.95;1.73;;;19.10;99.90;;;;;;5078169;28;20206;-83
2023/07/29 00:03:18;;;;;;;2.53;1.70;;;19.10;99.90;;;;;;5089985;28;20592;-84
2023/07/29 00:05:49;;;;;;;3.05;1.42;;;19.10;99.90;;;;;;5095976;28;20309;-84
2023/07/29 00:08:20;;;;;;;2.28;1.55;;;19.10;99.90;;;;;;5088742;28;20203;-83
2023/07/29 00:10:51;;;;;;;4.75;1.70;;;19.20;99.90;;;;;;5073228;28;20201;-84
2023/07/29 00:13:21;;;;;;;6.10;2.00;;;19.20;99.90;;;;;;5091672;28;20195;-83
2023/07/29 00:15:52;;;;;;;5.82;2.35;;;19.30;99.90;;;;;;5094688;28;20579;-84
2023/07/29 00:18:25;;;;;;;3.53;2.08;;;19.30;99.90;;;;;;5092983;28;20578;-84
2023/07/29 00:20:56;;;;;;;3.33;2.10;;;19.30;99.90;;;;;;5092046;28;20197;-84
2023/07/29 00:23:27;;;;;;;3.95;2.00;;;19.20;99.90;;;;;;5073513;28;20348;-84
2023/07/29 00:25:57;;;;;;;3.88;1.95;;;19.20;99.90;;;;;;5073153;28;20231;-84
2023/07/29 00:28:28;;;;;;;2.58;1.48;;;19.30;99.90;;;;;;5073658;28;20192;-84
2023/07/29 00:30:59;;;;;;;3.53;1.55;;;19.50;99.90;;;;;;5073263;28;20196;-84
2023/07/29 00:33:31;;;;;;;2.42;1.45;;;19.60;99.90;;;;;;5073846;28;20206;-84
2023/07/29 00:36:03;;;;;;;4.32;1.52;;;19.80;99.90;;;;;;5073065;28;20562;-84
2023/07/29 00:38:34;;;;;;;2.80;1.33;;;20.00;99.90;;;;;;5073091;28;20729;-83
2023/07/29 00:41:06;;;;;;;4.25;1.60;;;20.10;99.90;;;;;;5072798;28;20689;-84
2023/07/29 00:43:37;;;;;;;2.45;1.50;;;20.20;99.90;;;;;;5073394;28;20388;-85
2023/07/29 00:46:09;;;;;;;2.95;1.50;;;20.40;99.90;;;;;;5072654;28;20698;-84
2023/07/29 00:48:42;;;;;;;3.45;1.17;;;20.50;99.90;;;;;;5072847;28;20567;-83
2023/07/29 00:51:13;;;;;;;2.70;1.40;;;20.70;99.90;;;;;;5079162;28;20210;-85
2023/07/29 00:53:44;;;;;;;1.63;1.15;;;20.80;99.90;;;;;;5093386;28;20202;-83
2023/07/29 00:56:15;;;;;;;1.45;0.95;;;21.00;99.90;;;;;;5093143;28;20210;-84
2023/07/29 00:58:46;;;;;;;2.63;1.20;;;21.10;99.90;;;;;;5093052;28;20646;-83
2023/07/29 01:01:17;;;;;;;3.17;1.02;;;21.30;99.90;;;;;;5080323;28;20701;-84
2023/07/29 01:03:50;;;;;;;1.27;0.80;;;21.40;99.90;;;;;;5092392;28;20241;-84
2023/07/29 01:06:30;;;;;;;1.60;0.90;;;21.50;99.90;;;;;;5092499;28;20623;-84
2023/07/29 01:09:06;;;;;;;0.90;0.70;;;21.50;99.90;;;;;;5091308;28;20195;-82
2023/07/29 01:11:46;;;;;;;1.92;0.73;;;21.60;99.90;;;;;;5092616;28;20661;-85
2023/07/29 01:14:24;;;;;;;3.10;0.75;;;21.70;99.90;;;;;;5093171;28;20219;-84
2023/07/29 01:16:59;;;;;;;2.17;0.80;;;21.80;99.90;;;;;;5084237;28;20240;-84
2023/07/29 01:19:58;;;;;;;3.47;0.90;;;21.80;99.90;;;;;;5073228;28;20195;-84
2023/07/29 01:22:30;;;;;;;1.83;0.70;;;21.80;99.90;;;;;;5072227;28;20659;-86
2023/07/29 01:25:04;;;;;;;3.08;0.70;;;21.80;99.90;;;;;;5089639;28;20215;-84
2023/07/29 01:27:35;;;;;;;2.58;0.85;;;21.90;99.90;;;;;;5092511;28;20187;-85
2023/07/29 01:30:07;;;;;;;1.50;0.70;;;22.00;99.90;;;;;;5092153;28;20202;-86
2023/07/29 01:32:42;;;;;;;2.20;0.90;;;22.10;99.90;;;;;;5092349;28;20199;-86
2023/07/29 01:35:21;;;;;;;2.80;0.70;;;22.10;99.90;;;;;;5072548;28;20203;-84
2023/07/29 01:37:56;;;;;;;1.50;0.63;;;22.10;99.90;;;;;;5071703;28;20202;-83
2023/07/29 01:40:30;;;;;;;2.00;0.90;;;22.10;99.90;;;;;;5071331;28;20199;-83
2023/07/29 01:43:02;;;;;;;1.20;0.63;;;22.10;99.90;;;;;;5072153;28;20203;-84
2023/07/29 01:45:36;;;;;;;1.73;0.80;;;22.20;99.90;;;;;;5071558;28;20228;-82
2023/07/29 01:48:07;;;;;;;2.22;0.80;;;22.40;99.90;;;;;;5071364;28;20286;-84
2023/07/29 01:50:38;;;;;;;4.13;0.68;;;22.60;99.90;;;;;;5071338;28;20283;-85
2023/07/29 01:53:08;;;;;;;1.35;0.80;;;22.60;99.90;;;;;;5071575;28;20226;-85
2023/07/29 01:55:41;;;;;;;2.25;0.60;;;22.80;99.90;;;;;;5071253;28;20202;-85
2023/07/29 01:58:14;;;;;;;3.85;0.80;;;22.80;99.90;;;;;;5071349;28;20196;-85
2023/07/29 02:00:45;;;;;;;2.33;0.80;;;22.70;99.90;;;;;;5086393;28;20203;-85
2023/07/29 02:03:16;;;;;;;1.30;0.65;;;22.60;99.90;;;;;;5091210;28;20237;-86
2023/07/29 02:05:46;;;;;;;1.98;0.70;;;22.50;99.90;;;;;;5078089;28;20224;-85
2023/07/29 02:08:17;;;;;;;4.38;1.13;;;22.40;99.90;;;;;;5071641;28;20693;-86
2023/07/29 02:10:50;;;;;;;1.63;0.60;;;22.40;99.90;;;;;;5070511;28;20685;-87
2023/07/29 02:13:21;;;;;;;1.38;0.57;;;22.30;99.90;;;;;;5087991;28;20200;-87
2023/07/29 02:15:51;;;;;;;1.17;0.55;;;22.20;99.90;;;;;;5087733;28;20215;-86
2023/07/29 02:18:22;;;;;;;1.05;0.80;;;22.20;99.90;;;;;;5080735;28;20218;-86
2023/07/29 02:20:53;;;;;;;1.77;0.80;;;22.20;99.90;;;;;;5071657;28;20279;-85
2023/07/29 02:23:24;;;;;;;1.48;0.60;;;22.10;99.90;;;;;;5071605;28;20191;-86
2023/07/29 02:25:57;;;;;;;1.42;0.60;;;22.10;99.90;;;;;;5070769;28;20215;-85
2023/07/29 02:28:27;;;;;;;1.08;0.55;;;22.10;99.90;;;;;;5071336;28;20206;-85
2023/07/29 02:31:12;;;;;;;2.00;0.88;;;22.10;99.90;;;;;;5072171;28;20287;-86
2023/07/29 02:33:43;;;;;;;1.77;0.80;;;22.40;99.90;;;;;;5072411;28;20192;-86
2023/07/29 02:36:15;;;;;;;1.60;0.70;;;22.60;99.90;;;;;;5071927;28;20199;-85
2023/07/29 02:38:47;;;;;;;1.45;1.00;;;22.80;99.90;;;;;;5071192;28;20203;-86
2023/07/29 02:41:19;;;;;;;2.22;0.80;;;22.90;99.90;;;;;;5071025;28;20227;-86
2023/07/29 02:43:53;;;;;;;1.73;1.00;;;23.00;99.90;;;;;;5070840;28;20203;-87
2023/07/29 02:46:25;;;;;;;3.97;1.13;;;23.10;99.90;;;;;;5071121;28;20231;-85
2023/07/29 02:48:55;;;;;;;2.67;0.90;;;23.20;99.90;;;;;;5071515;28;20203;-86
2023/07/29 02:51:26;;;;;;;1.63;0.80;;;23.20;99.90;;;;;;5087914;28;20281;-87
2023/07/29 02:53:57;;;;;;;2.75;0.90;;;23.10;99.90;;;;;;5085541;28;20196;-86
2023/07/29 02:56:30;;;;;;;2.22;0.70;;;23.20;99.90;;;;;;5071060;28;20670;-86
2023/07/29 02:59:01;;;;;;;2.55;0.90;;;23.20;99.90;;;;;;5082136;28;20248;-85
2023/07/29 03:01:32;;;;;;;3.17;1.10;;;23.30;99.90;;;;;;5090687;28;20199;-85
2023/07/29 03:04:02;;;;;;;4.68;1.20;;;23.30;99.90;;;;;;5082640;28;20720;-85
2023/07/29 03:06:35;;;;;;;2.22;1.50;;;23.50;99.90;;;;;;5071266;28;20223;-84
2023/07/29 03:09:06;;;;;;;1.95;1.50;;;23.50;99.90;;;;;;5086717;28;20195;-85
2023/07/29 03:11:39;;;;;;;2.80;1.20;;;23.40;99.90;;;;;;5090946;28;20205;-85
2023/07/29 03:14:10;;;;;;;2.38;1.17;;;23.40;99.90;;;;;;5090423;28;20233;-85
2023/07/29 03:16:41;;;;;;;1.73;0.90;;;23.20;99.90;;;;;;5094581;28;20195;-85
2023/07/29 03:19:11;;;;;;;1.17;0.90;;;23.00;99.90;;;;;;5094649;28;20195;-85
2023/07/29 03:21:42;;;;;;;1.27;1.10;;;23.00;99.90;;;;;;5094819;28;20563;-85
2023/07/29 03:24:13;;;;;;;1.52;1.15;;;23.10;99.90;;;;;;5085363;28;20239;-86
2023/07/29 03:26:47;;;;;;;1.98;1.00;;;23.00;99.90;;;;;;5074685;28;20226;-86
2023/07/29 03:29:18;;;;;;;3.95;1.05;;;23.20;99.90;;;;;;5089872;28;20686;-85
2023/07/29 03:31:49;;;;;;;6.50;1.23;;;23.30;99.90;;;;;;5074703;28;20204;-85
2023/07/29 03:34:20;;;;;;;3.05;0.80;;;23.40;99.90;;;;;;5074710;28;20788;-84
2023/07/29 03:36:52;;;;;;;4.15;1.10;;;23.40;99.90;;;;;;5075300;28;20218;-84
2023/07/29 03:39:22;;;;;;;2.47;1.10;;;23.40;99.90;;;;;;5073548;28;20278;-84
2023/07/29 03:41:55;;;;;;;3.38;0.98;;;23.30;99.90;;;;;;5086962;28;20199;-86
2023/07/29 03:44:27;;;;;;;3.00;0.93;;;23.30;99.90;;;;;;5094545;28;20188;-86
2023/07/29 03:46:57;;;;;;;4.82;1.10;;;23.20;99.90;;;;;;5094671;28;20275;-86
2023/07/29 03:49:28;;;;;;;2.28;1.00;;;23.00;99.90;;;;;;5094610;28;20202;-85
2023/07/29 03:51:59;;;;;;;2.30;0.90;;;22.90;99.90;;;;;;5094611;28;20199;-86
2023/07/29 03:54:30;;;;;;;2.75;0.80;;;22.80;99.90;;;;;;5094225;28;20201;-86
2023/07/29 03:57:02;;;;;;;2.60;0.90;;;22.80;99.90;;;;;;5085626;28;20207;-86
2023/07/29 03:59:33;;;;;;;3.65;1.10;;;22.70;99.90;;;;;;5074232;28;20204;-85
2023/07/29 04:02:04;;;;;;;4.88;1.20;;;22.70;99.90;;;;;;5073648;28;20200;-86
2023/07/29 04:04:35;;;;;;;2.67;1.00;;;22.70;99.90;;;;;;5073848;28;20202;-86
2023/07/29 04:07:06;;;;;;;3.25;0.95;;;22.70;99.90;;;;;;5081535;28;20215;-87
2023/07/29 04:09:37;;;;;;;2.88;1.02;;;22.70;99.90;;;;;;5081594;28;20196;-88
2023/07/29 04:12:11;;;;;;;3.53;1.20;;;22.80;99.90;;;;;;5096417;28;20199;-87
2023/07/29 04:14:43;;;;;;;3.25;0.98;;;22.90;99.90;;;;;;5086772;28;20221;-87
2023/07/29 04:17:13;;;;;;;1.85;0.82;;;22.90;99.90;;;;;;5073208;28;20203;-87
2023/07/29 04:19:44;;;;;;;3.92;1.27;;;22.80;99.90;;;;;;5074217;28;20317;-87
2023/07/29 04:22:15;;;;;;;2.42;1.08;;;22.80;99.90;;;;;;5074762;28;20215;-87
2023/07/29 04:24:46;;;;;;;3.40;1.20;;;22.90;99.90;;;;;;5074168;28;20201;-87
2023/07/29 04:27:19;;;;;;;3.90;1.10;;;22.80;99.90;;;;;;5074190;28;20230;-87
2023/07/29 04:29:50;;;;;;;3.10;1.02;;;22.80;99.90;;;;;;5076229;28;20199;-87
2023/07/29 04:32:20;;;;;;;2.63;1.17;;;22.70;99.90;;;;;;5086223;28;20286;-86
2023/07/29 04:34:51;;;;;;;1.08;0.90;;;22.70;99.90;;;;;;5076551;28;20219;-86
2023/07/29 04:37:22;;;;;;;3.42;1.20;;;22.70;99.90;;;;;;5074935;28;20206;-87
2023/07/29 04:39:53;;;;;;;2.88;1.10;;;22.70;99.90;;;;;;5073290;28;20211;-86
2023/07/29 04:42:25;;;;;;;3.25;0.95;;;22.60;99.90;;;;;;5073343;28;20203;-86
2023/07/29 04:44:56;;;;;;;7.22;1.40;;;22.50;99.90;;;;;;5073448;28;20192;-87
2023/07/29 04:47:27;;;;;;;2.10;0.98;;;22.40;99.90;;;;;;5073226;28;20227;-87
2023/07/29 04:49:58;;;;;;;2.67;1.00;;;22.30;99.90;;;;;;5082804;28;20206;-87
2023/07/29 04:52:29;;;;;;;2.60;1.08;;;22.30;99.90;;;;;;5089391;28;20213;-88
2023/07/29 04:55:01;;;;;;;2.42;1.08;;;22.20;99.90;;;;;;5087604;28;20203;-86
2023/07/29 04:57:35;;;;;;;4.00;1.20;;;22.20;99.90;;;;;;5094420;28;20277;-89
2023/07/29 05:00:07;;;;;;;5.18;2.05;;;22.20;99.90;;;;;;5102714;28;20223;-89
2023/07/29 05:02:37;;;;;;;6.47;3.08;;;22.20;99.90;;;;;;5084378;28;20295;-87
2023/07/29 05:05:09;;;;;;;4.70;2.72;;;22.20;99.90;;;;;;5077357;28;20199;-88
2023/07/29 05:07:41;;;;;;;3.95;2.65;;;22.20;99.90;;;;;;5092791;28;20295;-88
2023/07/29 05:10:12;;;;;;;3.42;1.60;;;22.20;99.90;;;;;;5094207;28;20205;-87
2023/07/29 05:12:45;;;;;;;3.00;1.33;;;22.10;99.90;;;;;;5093071;28;20201;-87
2023/07/29 05:15:18;;;;;;;2.75;1.35;;;22.20;99.90;;;;;;5079252;28;20200;-88
2023/07/29 05:17:49;;;;;;;6.35;1.63;;;22.20;99.90;;;;;;5079304;28;20601;-89
2023/07/29 05:20:21;;;;;;;4.05;1.48;;;22.20;99.90;;;;;;5093773;28;20199;-88
2023/07/29 05:22:52;;;;;;;6.70;1.48;;;22.10;99.90;;;;;;5092995;28;20633;-88
2023/07/29 05:25:24;;;;;;;3.25;1.10;;;22.00;99.90;;;;;;5094252;28;20263;-88
2023/07/29 05:27:57;;;;;;;1.92;1.13;;;22.00;99.90;;;;;;5094983;28;20775;-88
2023/07/29 05:30:30;;;;;;;2.70;1.13;;;21.90;99.90;;;;;;5089706;28;20520;-88
2023/07/29 05:33:02;;;;;;;3.03;1.45;;;21.90;99.90;;;;;;5073420;28;20200;-89
2023/07/29 05:35:33;;;;;;;4.35;1.30;;;21.80;99.90;;;;;;5073417;28;20253;-89
2023/07/29 05:38:05;;;;;;;2.22;1.00;;;21.80;99.90;;;;;;5074000;28;20210;-87
2023/07/29 05:40:35;;;;;;;3.22;1.30;;;21.70;99.90;;;;;;5075041;28;20733;-88
2023/07/29 05:43:10;;;;;;;2.60;1.20;;;21.60;99.90;;;;;;5081844;28;20573;-90
2023/07/29 05:45:41;;;;;;;3.15;1.10;;;21.60;99.90;;;;;;5086689;28;20209;-88
2023/07/29 05:48:12;;;;;;;4.47;1.30;;;21.50;99.90;;;;;;5093768;28;20278;-89
2023/07/29 05:50:43;;;;;;;6.15;1.33;;;21.50;99.90;;;;;;5094163;28;20214;-88
2023/07/29 05:53:14;;;;;;;2.55;1.27;;;21.50;99.90;;;;;;5093897;28;20568;-88
2023/07/29 05:55:46;;;;;;;3.65;1.48;;;21.40;99.90;;;;;;5074839;28;20299;-88
2023/07/29 05:58:20;;;;;;;5.75;1.38;;;21.30;99.90;;;;;;5075794;28;20192;-88
2023/07/29 06:00:51;;;;;;;1.95;1.17;;;21.40;99.90;;;;;;5079199;28;20199;-89
2023/07/29 06:03:22;;;;;;;3.42;1.20;;;21.30;99.90;;;;;;5090102;28;20216;-89
2023/07/29 06:05:53;;;;;;;3.28;1.17;;;21.30;99.90;;;;;;5086261;28;20204;-88
2023/07/29 06:08:28;;;;;;;3.58;1.13;;;21.30;99.90;;;;;;5077400;28;20290;-88
2023/07/29 06:10:59;;;;;;;6.00;1.38;;;21.30;99.90;;;;;;5074730;28;20195;-88
2023/07/29 06:13:33;;;;;;;4.10;1.45;;;21.20;99.90;;;;;;5091657;28;20596;-87
2023/07/29 06:16:03;;;;;;;3.65;1.40;;;21.30;99.90;;;;;;5088276;28;20188;-87
2023/07/29 06:18:34;;;;;;;2.25;1.33;;;21.30;99.90;;;;;;5092519;28;20200;-86
2023/07/29 06:21:07;;;;;;;2.95;1.27;;;21.30;99.90;;;;;;5093158;28;20254;-87
2023/07/29 06:23:39;;;;;;;3.28;1.20;;;21.40;99.90;;;;;;5110946;28;20198;-86
2023/07/29 06:26:10;;;;;;;3.67;1.30;;;21.50;99.90;;;;;;5095188;28;20314;-88
2023/07/29 06:28:44;;;;;;;4.25;1.10;;;21.60;99.90;;;;;;5092676;28;20191;-87
2023/07/29 06:31:14;;;;;;;1.95;1.00;;;21.70;99.90;;;;;;5093112;28;20263;-88
2023/07/29 06:33:46;;;;;;;2.13;1.20;;;21.70;99.90;;;;;;5114987;28;20214;-87
2023/07/29 06:36:17;;;;;;;2.22;0.98;;;21.70;99.90;;;;;;5096439;28;20237;-90
2023/07/29 06:38:48;;;;;;;2.13;1.10;;;21.60;99.90;;;;;;5096909;28;20282;-89
2023/07/29 06:41:19;;;;;;;2.40;1.10;;;21.60;99.90;;;;;;5096291;28;20213;-89
2023/07/29 06:43:52;;;;;;;1.52;0.93;;;21.50;99.90;;;;;;5095805;28;20206;-89
2023/07/29 06:46:23;;;;;;;3.25;1.08;;;21.30;99.90;;;;;;5095610;28;20218;-89
2023/07/29 06:48:54;;;;;;;2.75;1.13;;;21.20;99.90;;;;;;5082192;28;20204;-89
2023/07/29 06:51:26;;;;;;;3.33;0.98;;;21.10;99.90;;;;;;5074259;28;20200;-89
2023/07/29 06:53:57;;;;;;;2.38;1.10;;;21.00;99.90;;;;;;5083257;28;20655;-90
2023/07/29 06:56:27;;;;;;;4.32;1.20;;;21.00;99.90;;;;;;5074625;28;20253;-89
2023/07/29 06:59:01;;;;;;;2.83;1.15;;;21.00;99.90;;;;;;5074726;28;20210;-89
2023/07/29 07:01:33;;;;;;;4.63;1.10;;;20.80;99.90;;;;;;5075530;28;20226;-89
2023/07/29 07:04:05;;;;;;;3.45;1.17;;;20.70;99.90;;;;;;5073034;28;20319;-88
2023/07/29 07:06:37;;;;;;;3.65;1.10;;;20.60;99.90;;;;;;5091225;28;20223;-88
2023/07/29 07:09:09;;;;;;;2.35;1.05;;;20.50;99.90;;;;;;5093884;28;20278;-88
2023/07/29 07:11:41;;;;;;;3.25;1.30;;;20.60;99.90;;;;;;5092118;28;20207;-87
2023/07/29 07:14:14;;;;;;;1.90;0.82;;;20.50;99.90;;;;;;5092619;28;20195;-87
2023/07/29 07:16:49;;;;;;;3.70;1.30;;;20.40;99.90;;;;;;5093464;28;20195;-87
2023/07/29 07:19:20;;;;;;;6.82;1.52;;;20.30;99.90;;;;;;5093257;28;20198;-87
2023/07/29 07:21:51;;;;;;;2.00;1.20;;;20.20;99.90;;;;;;5089068;28;20224;-88
2023/07/29 07:24:22;;;;;;;2.03;1.20;;;20.10;99.90;;;;;;5075135;28;20196;-88
2023/07/29 07:26:56;;;;;;;3.85;1.30;;;20.10;99.90;;;;;;5079276;28;20219;-86
2023/07/29 07:29:29;;;;;;;3.65;1.33;;;20.00;99.90;;;;;;5082288;28;20196;-88
2023/07/29 07:32:03;;;;;;;3.47;1.33;;;20.00;99.90;;;;;;5081152;28;20212;-88
2023/07/29 07:34:34;;;;;;;3.03;1.40;;;20.00;99.90;;;;;;5073981;28;20215;-88
2023/07/29 07:37:06;;;;;;;3.80;1.40;;;19.90;99.90;;;;;;5073530;28;20232;-89
2023/07/29 07:39:37;;;;;;;3.72;1.17;;;19.90;99.90;;;;;;5072730;28;20195;-87
2023/07/29 07:42:11;;;;;;;3.33;1.45;;;19.80;99.90;;;;;;5073068;28;20206;-87
2023/07/29 07:44:45;;;;;;;1.35;1.02;;;19.80;99.90;;;;;;5080041;28;20205;-86
2023/07/29 07:47:19;;;;;;;2.22;1.20;;;19.70;99.90;;;;;;5072271;28;20249;-86
2023/07/29 07:49:50;;;;;;;1.58;1.20;;;19.80;99.90;;;;;;5072033;28;20687;-87
2023/07/29 07:52:21;;;;;;;2.00;1.27;;;19.70;99.90;;;;;;5071617;28;20203;-86
2023/07/29 07:54:57;;;;;;;3.45;1.48;;;19.70;99.90;;;;;;5077009;28;20200;-90
2023/07/29 07:57:27;;;;;;;8.38;4.82;;;19.70;99.90;;;;;;5092649;28;20201;-89
2023/07/29 08:00:00;;;;;;;7.15;4.85;;;19.70;99.90;;;;;;5075582;28;20226;-88
2023/07/29 08:02:32;;;;;;;4.55;3.17;;;19.60;99.90;;;;;;5095582;28;20237;-88
2023/07/29 08:05:04;;;;;;;5.30;2.95;;;19.60;99.90;;;;;;5096200;28;20658;-87
2023/07/29 08:07:34;;;;;;;3.70;2.60;;;19.60;99.90;;;;;;5096081;28;20215;-89
2023/07/29 08:10:05;;;;;;;5.65;2.28;;;19.60;99.90;;;;;;5095662;28;20199;-88
2023/07/29 08:12:36;;;;;;;3.85;2.10;;;19.50;99.90;;;;;;5094874;28;20571;-88
2023/07/29 08:15:11;;;;;;;3.80;1.67;;;19.50;99.90;;;;;;5095531;28;20191;-88
2023/07/29 08:17:42;;;;;;;3.47;1.75;;;19.50;99.90;;;;;;5092842;28;20209;-88
2023/07/29 08:20:16;;;;;;;3.25;1.80;;;19.40;99.90;;;;;;5095633;28;20654;-88
2023/07/29 08:22:49;;;;;;;3.63;1.67;;;19.40;99.90;;;;;;5096055;28;20195;-89
2023/07/29 08:25:20;;;;;;;5.70;2.10;;;19.40;99.90;;;;;;5095410;28;20188;-89
2023/07/29 08:27:51;;;;;;;3.13;1.90;;;19.40;99.90;;;;;;5095246;28;20214;-89
2023/07/29 08:30:25;;;;;;;4.25;2.13;;;19.40;99.90;;;;;;5087386;28;20291;-87
2023/07/29 08:32:56;;;;;;;4.53;2.47;;;19.40;99.90;;;;;;5075368;28;20655;-89
2023/07/29 08:35:27;;;;;;;4.93;2.30;;;19.40;99.90;;;;;;5087765;28;20199;-89
2023/07/29 08:37:59;;;;;;;2.97;1.70;;;19.40;99.90;;;;;;5096143;28;20195;-90
2023/07/29 08:40:32;;;;;;;3.42;1.90;;;19.30;99.90;;;;;;5095850;28;20749;-89
2023/07/29 08:43:06;;;;;;;7.68;2.10;;;19.30;99.90;;;;;;5100367;28;20201;-89
2023/07/29 08:45:41;;;;;;;4.35;2.03;;;19.30;99.90;;;;;;5109429;28;20191;-89
2023/07/29 08:48:13;;;;;;;3.65;1.80;;;19.30;99.90;;;;;;5102547;28;20309;-90
2023/07/29 08:50:46;;;;;;;8.02;2.30;;;19.20;99.90;;;;;;5095924;28;20206;-90
2023/07/29 08:53:18;;;;;;;4.32;2.22;;;19.20;99.90;;;;;;5087822;28;20196;-86
2023/07/29 08:55:49;;;;;;;4.40;2.13;;;19.20;99.90;;;;;;5073423;28;20206;-88
2023/07/29 08:58:21;;;;;;;3.78;2.25;;;19.20;99.90;;;;;;5074291;28;20199;-86
2023/07/29 09:00:54;;;;;;;4.32;2.50;;;19.20;99.90;;;;;;5075198;28;20202;-87
2023/07/29 09:03:28;;;;;;;4.75;2.50;;;19.20;99.90;;;;;;5075978;28;20259;-88
2023/07/29 09:06:00;;;;;;;4.13;2.75;;;19.20;99.90;;;;;;5103838;28;20203;-86
2023/07/29 09:08:34;;;;;;;6.10;2.40;;;19.10;99.90;;;;;;5098081;28;20238;-88
2023/07/29 09:11:06;;;;;;;4.10;2.28;;;19.10;99.90;;;;;;5098710;28;20203;-88
2023/07/29 09:13:37;;;;;;;4.20;2.10;;;19.20;99.90;;;;;;5096946;28;20214;-87
2023/07/29 09:16:40;;;;;;;5.03;2.40;;;19.10;99.90;;;;;;5097341;28;20207;-87
2023/07/29 09:19:19;;;;;;;3.05;1.95;;;19.10;99.90;;;;;;5083724;28;20208;-88
2023/07/29 09:21:53;;;;;;;3.38;2.00;;;19.10;99.90;;;;;;5078745;28;20249;-89
2023/07/29 09:24:29;;;;;;;5.30;2.08;;;19.10;99.90;;;;;;5079240;28;20291;-89
2023/07/29 09:27:06;;;;;;;3.40;2.20;;;19.10;99.90;;;;;;5079946;28;20637;-88
2023/07/29 09:29:42;;;;;;;8.30;5.82;;;19.00;99.90;;;;;;5080772;28;20561;-88
2023/07/29 09:32:31;;;;;;;5.60;4.05;;;19.00;99.90;;;;;;5082261;28;20200;-90
2023/07/29 09:35:19;;;;;;;5.93;3.22;;;19.00;99.90;;;;;;5080549;28;20204;-89
2023/07/29 09:37:52;;;;;;;3.80;3.40;;;18.90;99.90;;;;;;5087035;28;20208;-90
2023/07/29 09:40:32;;;;;;;6.15;3.05;;;18.90;99.90;;;;;;5099937;28;20286;-91
2023/07/29 09:43:15;;;;;;;4.65;2.60;;;18.90;99.90;;;;;;5100230;28;20658;-89
2023/07/29 09:45:54;;;;;;;4.93;2.63;;;18.90;99.90;;;;;;5100238;28;20199;-89
2023/07/29 09:48:32;;;;;;;3.85;2.38;;;18.90;99.90;;;;;;5108540;28;20219;-90
2023/07/29 09:51:13;;;;;;;4.65;2.22;;;18.90;99.90;;;;;;5112764;28;20186;-89
2023/07/29 09:53:46;;;;;;;3.35;1.95;;;18.90;99.90;;;;;;5108803;28;20225;-91
2023/07/29 09:56:31;;;;;;;3.28;1.90;;;18.80;99.90;;;;;;5094180;28;20247;-89
2023/07/29 09:59:06;;;;;;;3.25;2.03;;;18.90;99.90;;;;;;5111542;28;20196;-90
2023/07/29 10:01:41;;;;;;;3.88;2.20;;;18.80;99.90;;;;;;5092571;28;20205;-89
2023/07/29 10:04:16;;;;;;;3.20;1.95;;;18.80;99.90;;;;;;5084615;28;20233;-90
2023/07/29 10:06:53;;;;;;;3.17;1.98;;;18.80;99.90;;;;;;5080235;28;20199;-90
2023/07/29 10:09:27;;;;;;;5.03;2.20;;;18.80;99.90;;;;;;5079169;28;20227;-90
2023/07/29 10:12:07;;;;;;;3.35;1.90;;;18.80;99.90;;;;;;5083847;28;20202;-90
2023/07/29 10:14:41;;;;;;;2.63;2.00;;;18.70;99.90;;;;;;5100578;28;20179;-89
2023/07/29 10:17:13;;;;;;;4.57;2.15;;;18.70;99.90;;;;;;5104905;28;20205;-89
2023/07/29 10:19:53;;;;;;;4.60;2.38;;;18.70;99.90;;;;;;5101443;28;20209;-90
2023/07/29 10:22:40;;;;;;;4.82;2.40;;;18.70;99.90;;;;;;5105583;28;20222;-89
2023/07/29 10:25:21;;;;;;;4.05;2.50;;;18.60;99.90;;;;;;5100661;28;20195;-90
2023/07/29 10:28:02;;;;;;;5.45;3.40;;;18.60;99.90;;;;;;5101859;28;20627;-88
2023/07/29 10:30:36;;;;;;;8.02;4.45;;;18.60;99.90;;;;;;5081251;28;20570;-90
2023/07/29 10:33:12;;;;;;;6.28;3.88;;;18.50;99.90;;;;;;5080702;28;20202;-91
2023/07/29 10:35:49;;;;;;;5.18;3.20;;;18.50;99.90;;;;;;5080853;28;20279;-89
2023/07/29 10:38:34;;;;;;;4.07;2.90;;;18.50;99.90;;;;;;5082862;28;20192;-89
2023/07/29 10:41:09;;;;;;;5.72;2.85;;;18.50;99.90;;;;;;5097115;28;20253;-90
2023/07/29 10:43:49;;;;;;;4.70;2.50;;;18.40;99.90;;;;;;5102986;28;20255;-88
2023/07/29 10:46:25;;;;;;;6.72;2.95;;;18.40;99.90;;;;;;5099846;28;20202;-89
2023/07/29 10:51:54;;;;;;;5.50;3.05;;;18.50;99.90;;;;;;5083791;28;20196;-89
2023/07/29 10:54:31;;;;;;;6.45;3.25;;;18.40;99.90;;;;;;5084284;28;20180;-89
2023/07/29 10:57:21;;;;;;;4.20;2.70;;;18.40;99.90;;;;;;5083637;28;20201;-89
2023/07/29 11:00:12;;;;;;;4.35;2.55;;;18.40;99.90;;;;;;5083606;28;20200;-88
2023/07/29 11:02:51;;;;;;;5.75;2.70;;;18.30;99.90;;;;;;5088649;28;20227;-88
2023/07/29 11:05:56;;;;;;;5.38;2.72;;;18.30;99.90;;;;;;5104222;28;20187;-88
2023/07/29 11:08:39;;;;;;;9.25;6.93;;;18.20;99.90;;;;;;5103995;28;20277;-89
2023/07/29 11:11:15;;;;;;;8.65;5.85;;;18.10;99.90;;;;;;5105826;28;20230;-88
2023/07/29 11:13:49;;;;;;;11.38;7.57;;;18.10;99.90;;;;;;5088198;28;20682;-88
2023/07/29 11:16:23;;;;;;;7.35;6.28;;;18.10;99.90;;;;;;5082618;28;20195;-86
2023/07/29 11:18:55;;;;;;;7.35;4.45;;;18.10;99.90;;;;;;5096883;28;20223;-88
2023/07/29 11:21:30;;;;;;;7.68;4.68;;;18.10;99.90;;;;;;5082573;28;20296;-90
2023/07/29 11:24:04;;;;;;;5.65;3.60;;;18.10;99.90;;;;;;5084424;28;20275;-90
2023/07/29 11:26:57;;;;;;;7.13;3.10;;;18.00;99.90;;;;;;5081049;28;20180;-90
2023/07/29 11:29:44;;;;;;;6.15;3.47;;;18.00;99.90;;;;;;5084858;28;20276;-89
2023/07/29 11:32:20;;;;;;;4.55;3.10;;;18.00;99.90;;;;;;5085230;28;20212;-89
2023/07/29 11:35:01;;;;;;;6.95;3.20;;;17.90;99.90;;;;;;5081955;28;20192;-91
2023/07/29 11:40:39;;;;;;;7.00;3.13;;;17.80;99.90;;;;;;5108299;28;20205;-91
2023/07/29 11:43:45;;;;;;;6.68;3.78;;;17.80;99.90;;;;;;5114037;28;20206;-89
2023/07/29 11:46:28;;;;;;;6.65;4.10;;;17.70;99.90;;;;;;5093127;28;20295;-86
2023/07/29 11:51:55;;;;;;;8.10;4.28;;;17.60;99.90;;;;;;5090361;28;20184;-89
2023/07/29 11:54:37;;;;;;;6.85;4.05;;;17.60;99.90;;;;;;5097077;28;20211;-90
2023/07/29 11:57:15;;;;;;;6.53;3.83;;;17.60;99.90;;;;;;5107909;28;20199;-89
2023/07/29 12:00:10;;;;;;;6.10;3.80;;;17.60;99.90;;;;;;5108810;28;20208;-89
2023/07/29 12:02:51;;;;;;;7.05;3.58;;;17.60;99.90;;;;;;5108418;28;20613;-88
2023/07/29 12:05:27;;;;;;;6.40;4.07;;;17.60;99.90;;;;;;5106882;28;20290;-91
2023/07/29 12:08:02;;;;;;;8.82;4.72;;;17.60;99.90;;;;;;5100283;28;20280;-88
2023/07/29 12:13:32;;;;;;;7.35;4.30;;;17.50;99.90;;;;;;5120863;28;20191;-89
2023/07/29 12:16:22;;;;;;;4.85;4.07;;;17.50;99.90;;;;;;5119993;28;20187;-90
2023/07/29 12:19:01;;;;;;;10.65;6.95;;;17.50;99.90;;;;;;5120463;28;20210;-89
2023/07/29 12:21:36;;;;;;;8.30;5.32;;;17.40;99.90;;;;;;5120103;28;20218;-87
2023/07/29 12:24:13;;;;;;;7.90;4.80;;;17.30;99.90;;;;;;5104242;28;20193;-88
2023/07/29 12:26:59;;;;;;;7.00;4.97;;;17.30;99.90;;;;;;5099200;28;20192;-87
2023/07/29 12:29:46;;;;;;;7.82;4.97;;;17.30;99.90;;;;;;5095235;28;20211;-87
2023/07/29 12:32:21;;;;;;;8.23;4.75;;;17.30;99.90;;;;;;5088853;28;20214;-88
2023/07/29 12:34:55;;;;;;;8.90;4.30;;;17.40;99.90;;;;;;5096331;28;20198;-87
2023/07/29 12:37:47;;;;;;;7.43;4.78;;;17.40;99.90;;;;;;5104900;28;20199;-89
2023/07/29 12:40:30;;;;;;;6.75;4.90;;;17.30;99.90;;;;;;5107601;28;20210;-90
2023/07/29 12:43:05;;;;;;;6.07;4.80;;;17.40;99.90;;;;;;5111149;28;20214;-88
2023/07/29 12:45:58;;;;;;;7.93;4.85;;;17.40;99.90;;;;;;5102182;28;20278;-90
2023/07/29 12:49:01;;;;;;;5.97;4.57;;;17.40;99.90;;;;;;5106431;28;20230;-88
2023/07/29 12:51:32;;;;;;;8.77;5.13;;;17.50;99.90;;;;;;5088447;28;20207;-88
2023/07/29 12:54:07;;;;;;;9.85;5.13;;;17.40;99.90;;;;;;5086618;28;20248;-87
2023/07/29 12:59:33;;;;;;;7.85;5.10;;;17.40;99.90;;;;;;5087596;28;20215;-88
2023/07/29 13:02:10;;;;;;;7.00;4.88;;;17.30;99.90;;;;;;5095113;28;20226;-88
2023/07/29 13:05:02;;;;;;;6.80;4.90;;;17.30;99.90;;;;;;5089727;28;20251;-89
2023/07/29 13:07:50;;;;;;;6.70;5.03;;;17.30;99.90;;;;;;5086905;28;20200;-90
2023/07/29 13:10:29;;;;;;;5.65;4.57;;;17.30;99.90;;;;;;5084855;28;20207;-89
2023/07/29 13:13:10;;;;;;;9.57;5.22;;;17.40;99.90;;;;;;5087979;28;20265;-90
2023/07/29 13:15:45;;;;;;;9.52;5.00;;;17.40;99.90;;;;;;5089476;28;20200;-89
2023/07/29 13:18:19;;;;;;;8.02;4.88;;;17.40;99.90;;;;;;5085127;28;20203;-90
2023/07/29 13:23:39;;;;;;;7.65;4.55;;;17.40;99.90;;;;;;5078417;28;20206;-90
2023/07/29 13:26:12;;;;;;;8.10;5.15;;;17.40;99.90;;;;;;5075005;28;20661;-90
2023/07/29 13:28:44;;;;;;;8.40;5.20;;;17.40;99.90;;;;;;5099082;28;20218;-87
2023/07/29 13:31:15;;;;;;;7.47;5.18;;;17.40;99.90;;;;;;5089895;28;20212;-90
2023/07/29 13:33:46;;;;;;;7.18;5.07;;;17.40;99.90;;;;;;5100464;28;20203;-89
2023/07/29 13:36:20;;;;;;;7.88;5.15;;;17.40;99.90;;;;;;5103950;28;20204;-89
2023/07/29 13:38:52;;;;;;;9.35;5.20;;;17.40;99.90;;;;;;5091628;28;20204;-88
2023/07/29 13:41:24;;;;;;;7.90;5.22;;;17.30;99.90;;;;;;5088676;28;20203;-88